createdAt,value
2019-02-18T00:01:25.649Z,-0.09
2019-02-18T00:04:32.215Z,-0.25
2019-02-18T00:07:38.772Z,-0.39
2019-02-18T00:10:45.554Z,-0.56
2019-02-18T00:13:52.578Z,-0.62
2019-02-18T00:16:59.408Z,-0.66
2019-02-18T00:20:06.098Z,-0.96
2019-02-18T00:23:12.497Z,-0.99
2019-02-18T00:26:19.112Z,-1.06
2019-02-18T00:29:25.390Z,-1.18
2019-02-18T00:32:31.612Z,-1.27
2019-02-18T00:35:38.105Z,-1.36
2019-02-18T00:38:44.842Z,-1.37
2019-02-18T00:41:51.567Z,-1.45
2019-02-18T00:44:57.972Z,-1.48
2019-02-18T00:48:04.235Z,-1.60
2019-02-18T00:51:11.209Z,-1.61
2019-02-18T00:54:17.755Z,-1.65
2019-02-18T00:57:24.252Z,-1.79
2019-02-18T01:00:31.228Z,-1.85
2019-02-18T01:03:37.510Z,-1.92
2019-02-18T01:06:43.844Z,-1.95
2019-02-18T01:09:50.357Z,-2.02
2019-02-18T01:12:57.134Z,-1.93
2019-02-18T01:16:03.468Z,-1.91
2019-02-18T01:19:09.961Z,-1.84
2019-02-18T01:22:16.260Z,-1.94
2019-02-18T01:25:22.960Z,-2.00
2019-02-18T01:28:29.686Z,-2.02
2019-02-18T01:31:37.075Z,-2.08
2019-02-18T01:34:43.420Z,-2.13
2019-02-18T01:37:49.829Z,-2.11
2019-02-18T01:40:56.509Z,-2.15
2019-02-18T01:44:03.022Z,-2.22
2019-02-18T01:47:09.735Z,-2.19
2019-02-18T01:50:17.020Z,-2.29
2019-02-18T01:53:23.759Z,-2.33
2019-02-18T01:56:31.302Z,-2.38
2019-02-18T01:59:38.423Z,-2.32
2019-02-18T02:02:45.579Z,-2.42
2019-02-18T02:05:52.052Z,-2.39
2019-02-18T02:08:59.371Z,-2.49
2019-02-18T02:12:07.804Z,-2.51
2019-02-18T02:15:20.366Z,-2.51
2019-02-18T02:18:27.129Z,-2.55
2019-02-18T02:21:34.927Z,-2.53
2019-02-18T02:24:42.026Z,-2.65
2019-02-18T02:27:48.505Z,-2.64
2019-02-18T02:30:55.109Z,-2.70
2019-02-18T02:34:01.788Z,-2.72
2019-02-18T02:37:08.399Z,-2.76
2019-02-18T02:40:14.967Z,-2.70
2019-02-18T02:43:21.631Z,-2.79
2019-02-18T02:46:28.381Z,-2.77
2019-02-18T02:49:35.208Z,-2.77
2019-02-18T02:52:41.698Z,-2.80
2019-02-18T02:55:48.919Z,-2.78
2019-02-18T02:58:55.606Z,-2.67
2019-02-18T03:02:02.133Z,-2.66
2019-02-18T03:05:09.363Z,-2.62
2019-02-18T03:08:20.305Z,-2.68
2019-02-18T03:11:23.943Z,-2.62
2019-02-18T03:14:30.436Z,-2.60
2019-02-18T03:17:36.716Z,-2.68
2019-02-18T03:20:42.988Z,-2.61
2019-02-18T03:23:49.839Z,-2.67
2019-02-18T03:26:56.315Z,-2.71
2019-02-18T03:30:55.537Z,-2.68
2019-02-18T03:34:24.108Z,-2.60
2019-02-18T03:37:30.647Z,-2.60
2019-02-18T03:40:38.498Z,-2.59
2019-02-18T03:43:45.280Z,-2.63
2019-02-18T03:46:51.988Z,-2.60
2019-02-18T03:49:58.574Z,-2.61
2019-02-18T03:53:05.419Z,-2.71
2019-02-18T03:56:12.303Z,-2.71
2019-02-18T03:59:18.752Z,-2.73
2019-02-18T04:02:25.330Z,-2.72
2019-02-18T04:05:32.014Z,-2.75
2019-02-18T04:08:42.983Z,-2.77
2019-02-18T04:11:46.878Z,-2.80
2019-02-18T04:14:53.486Z,-2.80
2019-02-18T04:18:00.533Z,-2.79
2019-02-18T04:21:07.009Z,-2.87
2019-02-18T04:24:13.662Z,-2.93
2019-02-18T04:27:19.958Z,-2.90
2019-02-18T04:30:26.451Z,-2.90
2019-02-18T04:33:32.848Z,-2.89
2019-02-18T04:36:39.513Z,-3.08
2019-02-18T04:39:46.127Z,-3.10
2019-02-18T04:42:52.916Z,-3.15
2019-02-18T04:45:59.410Z,-3.17
2019-02-18T04:49:06.014Z,-3.22
2019-02-18T04:52:13.340Z,-3.14
2019-02-18T04:55:19.884Z,-3.13
2019-02-18T04:58:26.573Z,-3.02
2019-02-18T05:01:33.628Z,-3.10
2019-02-18T05:04:41.649Z,-3.02
2019-02-18T05:07:48.051Z,-3.01
2019-02-18T05:10:54.340Z,-3.06
2019-02-18T05:14:01.268Z,-2.96
2019-02-18T05:17:07.812Z,-2.99
2019-02-18T05:20:15.425Z,-3.09
2019-02-18T05:23:22.020Z,-3.17
2019-02-18T05:26:28.675Z,-3.23
2019-02-18T05:29:34.869Z,-3.34
2019-02-18T05:32:41.509Z,-3.38
2019-02-18T05:35:49.082Z,-3.41
2019-02-18T05:38:56.432Z,-3.41
2019-02-18T05:42:02.995Z,-3.46
2019-02-18T05:45:09.511Z,-3.43
2019-02-18T05:48:16.233Z,-3.44
2019-02-18T05:51:22.790Z,-3.39
2019-02-18T05:54:29.492Z,-3.57
2019-02-18T05:57:36.414Z,-3.54
2019-02-18T06:00:42.940Z,-3.58
2019-02-18T06:03:49.389Z,-3.53
2019-02-18T06:06:56.099Z,-3.56
2019-02-18T06:10:02.748Z,-3.55
2019-02-18T06:13:09.349Z,-3.52
2019-02-18T06:16:15.837Z,-3.42
2019-02-18T06:19:22.147Z,-3.57
2019-02-18T06:22:28.550Z,-3.63
2019-02-18T06:25:35.002Z,-3.75
2019-02-18T06:28:41.750Z,-3.77
2019-02-18T06:31:49.195Z,-3.75
2019-02-18T06:34:55.834Z,-3.78
2019-02-18T06:38:02.376Z,-3.79
2019-02-18T06:41:09.227Z,-3.66
2019-02-18T06:44:16.729Z,-3.60
2019-02-18T06:47:26.021Z,-3.62
2019-02-18T06:50:32.725Z,-3.58
2019-02-18T06:53:39.225Z,-3.52
2019-02-18T06:56:55.936Z,-3.52
2019-02-18T07:00:10.175Z,-3.46
2019-02-18T07:03:25.339Z,-3.24
2019-02-18T07:06:50.652Z,-3.01
2019-02-18T07:10:19.073Z,-2.94
2019-02-18T07:13:26.254Z,-2.80
2019-02-18T07:16:32.822Z,-2.73
2019-02-18T07:19:40.425Z,-2.47
2019-02-18T07:22:47.359Z,-2.35
2019-02-18T07:25:54.066Z,-2.36
2019-02-18T07:29:00.558Z,-2.32
2019-02-18T07:32:07.100Z,-2.37
2019-02-18T07:35:13.548Z,-2.43
2019-02-18T07:38:20.259Z,-2.44
2019-02-18T07:41:27.429Z,-2.41
2019-02-18T07:44:34.846Z,-2.34
2019-02-18T07:47:42.395Z,-2.36
2019-02-18T07:50:48.920Z,-2.33
2019-02-18T07:53:55.394Z,-2.27
2019-02-18T07:57:02.043Z,-2.18
2019-02-18T08:00:12.950Z,-1.96
2019-02-18T08:03:19.898Z,-1.58
2019-02-18T08:06:26.429Z,-1.14
2019-02-18T08:09:32.874Z,-0.70
2019-02-18T08:12:40.139Z,-0.17
2019-02-18T08:15:47.552Z,-0.02
2019-02-18T08:18:54.159Z,0.37
2019-02-18T08:22:00.603Z,0.74
2019-02-18T08:25:07.863Z,1.14
2019-02-18T08:28:14.759Z,1.44
2019-02-18T08:31:21.366Z,1.75
2019-02-18T08:34:27.996Z,2.10
2019-02-18T08:37:34.836Z,2.40
2019-02-18T08:40:41.437Z,2.96
2019-02-18T08:43:47.964Z,3.15
2019-02-18T08:46:54.418Z,3.43
2019-02-18T08:50:01.088Z,3.48
2019-02-18T08:53:08.012Z,3.64
2019-02-18T08:56:14.701Z,3.91
2019-02-18T08:59:21.648Z,4.11
2019-02-18T09:02:27.993Z,4.27
2019-02-18T09:05:34.643Z,4.65
2019-02-18T09:08:40.984Z,4.94
2019-02-18T09:11:47.324Z,5.21
2019-02-18T09:14:54.183Z,5.46
2019-02-18T09:18:03.194Z,5.69
2019-02-18T09:21:10.403Z,5.94
2019-02-18T09:24:25.318Z,6.19
2019-02-18T09:27:32.470Z,6.47
2019-02-18T09:30:41.877Z,6.72
2019-02-18T09:33:49.237Z,7.16
2019-02-18T09:36:57.355Z,7.26
2019-02-18T09:40:03.831Z,7.56
2019-02-18T09:43:11.075Z,7.65
2019-02-18T09:46:17.704Z,7.93
2019-02-18T09:49:24.685Z,8.09
2019-02-18T09:52:31.408Z,8.12
2019-02-18T09:55:37.937Z,8.85
2019-02-18T09:58:44.518Z,8.98
2019-02-18T10:01:51.433Z,9.19
2019-02-18T10:04:57.971Z,9.28
2019-02-18T10:08:04.856Z,9.70
2019-02-18T10:11:11.529Z,10.76
2019-02-18T10:14:18.340Z,10.93
2019-02-18T10:17:24.822Z,10.98
2019-02-18T10:20:31.582Z,11.06
2019-02-18T10:23:38.500Z,11.62
2019-02-18T10:26:45.130Z,11.96
2019-02-18T10:29:51.816Z,12.51
2019-02-18T10:32:58.495Z,12.55
2019-02-18T10:36:06.454Z,12.65
2019-02-18T10:39:13.306Z,12.92
2019-02-18T10:42:19.741Z,13.08
2019-02-18T10:45:26.262Z,13.32
2019-02-18T10:48:34.399Z,13.74
2019-02-18T10:51:43.494Z,13.74
2019-02-18T10:54:50.506Z,13.36
2019-02-18T10:57:57.303Z,13.61
2019-02-18T11:01:04.287Z,13.66
2019-02-18T11:04:10.809Z,13.89
2019-02-18T11:07:17.780Z,14.11
2019-02-18T11:10:24.755Z,14.21
2019-02-18T11:13:31.796Z,14.48
2019-02-18T11:16:38.973Z,14.42
2019-02-18T11:19:46.760Z,14.63
2019-02-18T11:22:53.547Z,14.70
2019-02-18T11:26:00.385Z,14.82
2019-02-18T11:29:06.761Z,14.86
2019-02-18T11:32:13.764Z,14.79
2019-02-18T11:35:20.396Z,14.94
2019-02-18T11:38:26.931Z,15.06
2019-02-18T11:41:34.959Z,15.06
2019-02-18T11:44:41.642Z,15.00
2019-02-18T11:47:48.082Z,14.92
2019-02-18T11:50:54.873Z,15.19
2019-02-18T11:54:01.805Z,15.26
2019-02-18T11:57:08.282Z,15.18
2019-02-18T12:00:18.114Z,15.27
2019-02-18T12:03:24.649Z,15.04
2019-02-18T12:06:31.790Z,15.20
2019-02-18T12:09:38.948Z,15.16
2019-02-18T12:12:49.847Z,15.18
2019-02-18T12:15:58.192Z,15.12
2019-02-18T12:19:06.075Z,15.31
2019-02-18T12:22:13.446Z,15.24
2019-02-18T12:25:21.222Z,15.20
2019-02-18T12:28:28.740Z,15.15
2019-02-18T12:31:36.488Z,15.26
2019-02-18T12:34:43.166Z,14.94
2019-02-18T12:37:55.378Z,14.93
2019-02-18T12:40:58.129Z,14.99
2019-02-18T12:44:04.823Z,14.71
2019-02-18T12:47:11.220Z,14.66
2019-02-18T12:50:18.101Z,14.77
2019-02-18T12:53:24.587Z,14.54
2019-02-18T12:56:32.181Z,14.62
2019-02-18T12:59:38.975Z,14.56
2019-02-18T13:02:45.868Z,14.62
2019-02-18T13:05:52.685Z,14.82
2019-02-18T13:08:59.653Z,14.77
2019-02-18T13:12:07.068Z,14.67
2019-02-18T13:15:13.723Z,14.53
2019-02-18T13:18:20.642Z,14.46
2019-02-18T13:21:28.303Z,14.44
2019-02-18T13:24:36.728Z,14.45
2019-02-18T13:27:44.823Z,14.16
2019-02-18T13:30:51.181Z,14.32
2019-02-18T13:33:57.935Z,14.21
2019-02-18T13:37:04.477Z,14.16
2019-02-18T13:40:11.587Z,14.38
2019-02-18T13:43:18.099Z,14.29
2019-02-18T13:46:24.288Z,14.32
2019-02-18T13:49:30.819Z,14.27
2019-02-18T13:52:37.888Z,14.34
2019-02-18T13:55:44.173Z,14.21
2019-02-18T13:58:50.744Z,14.33
2019-02-18T14:01:57.494Z,14.28
2019-02-18T14:05:04.124Z,14.03
2019-02-18T14:08:11.061Z,14.12
2019-02-18T14:11:17.715Z,13.82
2019-02-18T14:14:24.784Z,13.85
2019-02-18T14:17:31.505Z,13.85
2019-02-18T14:20:38.225Z,13.90
2019-02-18T14:23:44.813Z,13.56
2019-02-18T14:26:51.216Z,13.55
2019-02-18T14:29:58.109Z,13.56
2019-02-18T14:33:04.723Z,13.40
2019-02-18T14:36:12.905Z,13.21
2019-02-18T14:39:24.243Z,13.09
2019-02-18T14:42:30.810Z,12.84
2019-02-18T14:45:37.972Z,12.83
2019-02-18T14:48:44.988Z,12.96
2019-02-18T14:51:53.271Z,12.87
2019-02-18T14:54:59.845Z,12.58
2019-02-18T14:58:06.757Z,12.58
2019-02-18T15:01:13.455Z,12.52
2019-02-18T15:04:20.630Z,12.50
2019-02-18T15:07:27.482Z,12.64
2019-02-18T15:10:33.848Z,12.80
2019-02-18T15:13:40.408Z,12.55
2019-02-18T15:16:47.085Z,12.46
2019-02-18T15:19:53.429Z,12.41
2019-02-18T15:23:00.449Z,12.21
2019-02-18T15:26:07.643Z,12.00
2019-02-18T15:29:14.516Z,11.82
2019-02-18T15:32:21.196Z,11.70
2019-02-18T15:35:27.887Z,11.68
2019-02-18T15:38:34.430Z,11.47
2019-02-18T15:41:41.519Z,11.59
2019-02-18T15:44:49.265Z,11.31
2019-02-18T15:48:01.552Z,11.08
2019-02-18T15:51:04.007Z,10.68
2019-02-18T15:54:11.254Z,10.38
2019-02-18T15:57:19.864Z,9.93
2019-02-18T16:00:26.598Z,9.78
2019-02-18T16:03:33.185Z,9.39
2019-02-18T16:06:39.642Z,9.24
2019-02-18T16:09:48.103Z,9.07
2019-02-18T16:12:57.078Z,8.90
2019-02-18T16:16:03.700Z,8.62
2019-02-18T16:19:10.299Z,8.31
2019-02-18T16:22:16.962Z,8.00
2019-02-18T16:25:23.693Z,7.65
2019-02-18T16:28:30.165Z,7.32
2019-02-18T16:31:37.680Z,7.04
2019-02-18T16:34:44.647Z,6.73
2019-02-18T16:37:52.388Z,6.55
2019-02-18T16:40:59.742Z,6.10
2019-02-18T16:44:06.858Z,5.83
2019-02-18T16:47:13.623Z,5.60
2019-02-18T16:50:20.382Z,5.39
2019-02-18T16:53:27.086Z,5.23
2019-02-18T16:56:34.650Z,4.88
2019-02-18T16:59:41.437Z,5.05
2019-02-18T17:02:48.574Z,5.15
2019-02-18T17:05:55.250Z,4.96
2019-02-18T17:09:02.040Z,4.68
2019-02-18T17:12:11.571Z,4.57
2019-02-18T17:15:22.149Z,4.39
2019-02-18T17:18:28.507Z,4.28
2019-02-18T17:21:36.051Z,4.01
2019-02-18T17:24:42.888Z,3.72
2019-02-18T17:27:49.329Z,3.62
2019-02-18T17:30:56.271Z,3.45
2019-02-18T17:34:02.954Z,3.27
2019-02-18T17:37:09.848Z,3.08
2019-02-18T17:40:16.865Z,2.78
2019-02-18T17:43:23.609Z,2.68
2019-02-18T17:46:30.017Z,2.60
2019-02-18T17:49:37.092Z,2.51
2019-02-18T17:52:43.556Z,2.26
2019-02-18T17:55:50.874Z,2.17
2019-02-18T17:58:58.364Z,2.13
2019-02-18T18:02:04.827Z,1.93
2019-02-18T18:05:12.394Z,1.94
2019-02-18T18:08:19.229Z,1.75
2019-02-18T18:11:25.766Z,1.68
2019-02-18T18:14:32.289Z,1.57
2019-02-18T18:17:39.214Z,1.43
2019-02-18T18:20:46.408Z,1.39
2019-02-18T18:23:52.793Z,1.31
2019-02-18T18:26:59.532Z,1.26
2019-02-18T18:30:06.008Z,1.08
2019-02-18T18:33:12.332Z,1.17
2019-02-18T18:36:19.069Z,0.86
2019-02-18T18:39:25.439Z,0.86
2019-02-18T18:42:32.169Z,0.97
2019-02-18T18:45:38.758Z,0.69
2019-02-18T18:48:45.731Z,0.54
2019-02-18T18:51:53.101Z,0.61
2019-02-18T18:55:00.148Z,0.46
2019-02-18T18:58:06.809Z,0.37
2019-02-18T19:01:14.742Z,0.28
2019-02-18T19:04:21.384Z,0.27
2019-02-18T19:07:27.921Z,0.17
2019-02-18T19:10:35.063Z,0.16
2019-02-18T19:13:45.161Z,0.01
2019-02-18T19:16:51.978Z,-0.06
2019-02-18T19:19:59.278Z,-0.09
2019-02-18T19:23:06.578Z,-0.17
2019-02-18T19:26:13.325Z,-0.13
2019-02-18T19:29:21.139Z,-0.17
2019-02-18T19:32:27.670Z,-0.14
2019-02-18T19:35:35.732Z,-0.36
2019-02-18T19:38:43.261Z,-0.42
2019-02-18T19:41:51.552Z,-0.40
2019-02-18T19:44:58.860Z,-0.47
2019-02-18T19:48:06.114Z,-0.48
2019-02-18T19:51:13.195Z,-0.58
2019-02-18T19:54:20.180Z,-0.64
2019-02-18T19:57:28.004Z,-0.64
2019-02-18T20:00:34.989Z,-0.57
2019-02-18T20:03:41.618Z,-0.50
2019-02-18T20:06:47.970Z,-0.60
2019-02-18T20:09:54.513Z,-0.61
2019-02-18T20:13:01.438Z,-0.70
2019-02-18T20:16:09.296Z,-0.66
2019-02-18T20:19:18.897Z,-0.79
2019-02-18T20:22:25.733Z,-0.90
2019-02-18T20:25:32.927Z,-0.91
2019-02-18T20:28:39.275Z,-0.79
2019-02-18T20:31:47.222Z,-0.87
2019-02-18T20:34:53.915Z,-0.88
2019-02-18T20:38:00.757Z,-0.86
2019-02-18T20:41:07.312Z,-0.86
2019-02-18T20:44:14.036Z,-0.93
2019-02-18T20:47:21.522Z,-0.92
2019-02-18T20:50:29.345Z,-0.95
2019-02-18T20:53:36.589Z,-0.89
2019-02-18T20:56:43.104Z,-0.96
2019-02-18T20:59:49.924Z,-0.95
2019-02-18T21:02:57.003Z,-0.93
2019-02-18T21:06:03.954Z,-1.08
2019-02-18T21:09:10.736Z,-1.07
2019-02-18T21:12:20.890Z,-1.09
2019-02-18T21:15:28.107Z,-1.21
2019-02-18T21:18:34.727Z,-1.21
2019-02-18T21:21:42.048Z,-1.21
2019-02-18T21:24:49.176Z,-1.22
2019-02-18T21:27:55.686Z,-1.23
2019-02-18T21:31:03.790Z,-1.27
2019-02-18T21:34:10.729Z,-1.31
2019-02-18T21:37:17.020Z,-1.33
2019-02-18T21:40:23.664Z,-1.38
2019-02-18T21:43:30.025Z,-1.34
2019-02-18T21:46:37.227Z,-1.41
2019-02-18T21:49:43.666Z,-1.42
2019-02-18T21:52:50.425Z,-1.46
2019-02-18T21:55:57.035Z,-1.49
2019-02-18T21:59:03.714Z,-1.53
2019-02-18T22:02:10.402Z,-1.55
2019-02-18T22:05:17.467Z,-1.54
2019-02-18T22:08:24.463Z,-1.55
2019-02-18T22:11:31.022Z,-1.56
2019-02-18T22:14:37.841Z,-1.54
2019-02-18T22:17:44.716Z,-1.54
2019-02-18T22:20:51.743Z,-1.52
2019-02-18T22:23:58.358Z,-1.46
2019-02-18T22:27:05.299Z,-1.42
2019-02-18T22:30:12.735Z,-0.70
2019-02-18T22:33:19.368Z,-0.60
2019-02-18T22:36:26.294Z,-0.31
2019-02-18T22:39:33.005Z,0.57
2019-02-18T22:42:39.731Z,0.47
2019-02-18T22:45:46.757Z,0.76
2019-02-18T22:48:53.599Z,1.11
2019-02-18T22:52:00.762Z,1.14
2019-02-18T22:55:10.534Z,1.25
2019-02-18T22:58:17.317Z,1.31
2019-02-18T23:01:25.278Z,1.35
2019-02-18T23:04:32.353Z,1.50
2019-02-18T23:07:39.860Z,1.45
2019-02-18T23:10:46.499Z,1.52
2019-02-18T23:13:53.684Z,1.65
2019-02-18T23:17:00.326Z,1.70
2019-02-18T23:20:07.085Z,1.81
2019-02-18T23:23:14.269Z,1.86
2019-02-18T23:26:21.050Z,1.89
2019-02-18T23:29:27.465Z,1.92
2019-02-18T23:32:34.067Z,2.08
2019-02-18T23:35:40.845Z,2.14
2019-02-18T23:38:47.690Z,2.00
2019-02-18T23:41:54.459Z,1.98
2019-02-18T23:45:01.575Z,1.99
2019-02-18T23:48:07.906Z,2.18
2019-02-18T23:51:15.537Z,2.47
2019-02-18T23:54:22.039Z,2.66
2019-02-18T23:57:28.908Z,3.13
